sensor_id;sensor_type;location;lat;lon;timestamp;P1;durP1;ratioP1;P2;durP2;ratioP2
1719;SDS011;857;52.872;9.692;2023-05-08T00:00:43;6.60;;;5.83;;
1719;SDS011;857;52.872;9.692;2023-05-08T00:03:11;5.27;;;4.77;;
1719;SDS011;857;52.872;9.692;2023-05-08T00:05:39;5.70;;;5.10;;
1719;SDS011;857;52.872;9.692;2023-05-08T00:08:08;6.27;;;5.67;;
1719;SDS011;857;52.872;9.692;2023-05-08T00:10:36;6.50;;;5.90;;
1719;SDS011;857;52.872;9.692;2023-05-08T00:13:04;5.03;;;4.37;;
1719;SDS011;857;52.872;9.692;2023-05-08T00:15:32;7.03;;;6.03;;
1719;SDS011;857;52.872;9.692;2023-05-08T00:18:00;4.00;;;3.60;;
1719;SDS011;857;52.872;9.692;2023-05-08T00:20:27;6.43;;;5.27;;
1719;SDS011;857;52.872;9.692;2023-05-08T00:22:55;6.57;;;5.93;;
1719;SDS011;857;52.872;9.692;2023-05-08T00:25:31;6.10;;;5.40;;
1719;SDS011;857;52.872;9.692;2023-05-08T00:27:59;5.37;;;4.30;;
1719;SDS011;857;52.872;9.692;2023-05-08T00:30:26;5.73;;;4.70;;
1719;SDS011;857;52.872;9.692;2023-05-08T00:32:54;6.47;;;5.47;;
1719;SDS011;857;52.872;9.692;2023-05-08T00:35:22;5.80;;;5.03;;
1719;SDS011;857;52.872;9.692;2023-05-08T00:37:50;4.53;;;4.10;;
1719;SDS011;857;52.872;9.692;2023-05-08T00:40:17;7.63;;;5.90;;
1719;SDS011;857;52.872;9.692;2023-05-08T00:42:47;7.40;;;6.27;;
1719;SDS011;857;52.872;9.692;2023-05-08T00:45:15;6.50;;;5.67;;
1719;SDS011;857;52.872;9.692;2023-05-08T00:47:42;6.40;;;5.77;;
1719;SDS011;857;52.872;9.692;2023-05-08T00:50:10;6.43;;;5.83;;
1719;SDS011;857;52.872;9.692;2023-05-08T00:52:38;6.23;;;5.47;;
1719;SDS011;857;52.872;9.692;2023-05-08T00:55:08;7.00;;;6.30;;
1719;SDS011;857;52.872;9.692;2023-05-08T00:57:43;7.17;;;6.17;;
1719;SDS011;857;52.872;9.692;2023-05-08T01:00:15;6.37;;;5.63;;
1719;SDS011;857;52.872;9.692;2023-05-08T01:02:43;6.40;;;5.63;;
1719;SDS011;857;52.872;9.692;2023-05-08T01:05:11;6.60;;;5.80;;
1719;SDS011;857;52.872;9.692;2023-05-08T01:07:39;6.87;;;5.70;;
1719;SDS011;857;52.872;9.692;2023-05-08T01:10:07;5.43;;;4.93;;
1719;SDS011;857;52.872;9.692;2023-05-08T01:12:37;6.47;;;5.73;;
1719;SDS011;857;52.872;9.692;2023-05-08T01:15:11;7.80;;;6.80;;
1719;SDS011;857;52.872;9.692;2023-05-08T01:17:44;7.47;;;6.67;;
1719;SDS011;857;52.872;9.692;2023-05-08T01:20:18;7.50;;;5.93;;
1719;SDS011;857;52.872;9.692;2023-05-08T01:22:54;6.20;;;5.60;;
1719;SDS011;857;52.872;9.692;2023-05-08T01:31:04;7.63;;;5.97;;
1719;SDS011;857;52.872;9.692;2023-05-08T01:33:38;8.03;;;6.00;;
1719;SDS011;857;52.872;9.692;2023-05-08T01:36:10;7.60;;;6.00;;
1719;SDS011;857;52.872;9.692;2023-05-08T01:38:41;8.60;;;6.77;;
1719;SDS011;857;52.872;9.692;2023-05-08T01:41:15;6.83;;;5.73;;
1719;SDS011;857;52.872;9.692;2023-05-08T01:43:45;5.30;;;4.80;;
1719;SDS011;857;52.872;9.692;2023-05-08T01:46:16;5.30;;;4.80;;
1719;SDS011;857;52.872;9.692;2023-05-08T01:48:48;8.27;;;5.97;;
1719;SDS011;857;52.872;9.692;2023-05-08T01:51:17;6.67;;;5.97;;
1719;SDS011;857;52.872;9.692;2023-05-08T01:53:46;8.37;;;6.47;;
1719;SDS011;857;52.872;9.692;2023-05-08T01:56:17;7.30;;;6.60;;
1719;SDS011;857;52.872;9.692;2023-05-08T01:58:46;6.17;;;5.40;;
1719;SDS011;857;52.872;9.692;2023-05-08T02:01:15;7.87;;;6.70;;
1719;SDS011;857;52.872;9.692;2023-05-08T02:03:49;4.43;;;3.90;;
1719;SDS011;857;52.872;9.692;2023-05-08T02:06:19;7.50;;;5.87;;
1719;SDS011;857;52.872;9.692;2023-05-08T02:08:48;5.03;;;4.57;;
1719;SDS011;857;52.872;9.692;2023-05-08T02:11:16;4.63;;;4.10;;
1719;SDS011;857;52.872;9.692;2023-05-08T02:13:45;6.80;;;6.10;;
1719;SDS011;857;52.872;9.692;2023-05-08T02:16:14;6.90;;;6.20;;
1719;SDS011;857;52.872;9.692;2023-05-08T02:18:43;6.60;;;6.00;;
1719;SDS011;857;52.872;9.692;2023-05-08T02:21:14;6.40;;;5.33;;
1719;SDS011;857;52.872;9.692;2023-05-08T02:23:57;5.60;;;4.90;;
1719;SDS011;857;52.872;9.692;2023-05-08T02:26:25;4.40;;;3.87;;
1719;SDS011;857;52.872;9.692;2023-05-08T02:28:55;6.83;;;5.43;;
1719;SDS011;857;52.872;9.692;2023-05-08T02:31:23;5.20;;;4.70;;
1719;SDS011;857;52.872;9.692;2023-05-08T02:33:51;7.33;;;6.47;;
1719;SDS011;857;52.872;9.692;2023-05-08T02:36:20;7.10;;;5.77;;
1719;SDS011;857;52.872;9.692;2023-05-08T02:38:50;6.70;;;5.47;;
1719;SDS011;857;52.872;9.692;2023-05-08T02:41:18;7.87;;;6.50;;
1719;SDS011;857;52.872;9.692;2023-05-08T02:43:48;4.93;;;4.43;;
1719;SDS011;857;52.872;9.692;2023-05-08T02:46:20;6.80;;;5.70;;
1719;SDS011;857;52.872;9.692;2023-05-08T02:49:02;8.20;;;5.90;;
1719;SDS011;857;52.872;9.692;2023-05-08T02:51:36;8.97;;;6.60;;
1719;SDS011;857;52.872;9.692;2023-05-08T02:54:09;6.53;;;5.90;;
1719;SDS011;857;52.872;9.692;2023-05-08T02:56:42;7.50;;;6.50;;
1719;SDS011;857;52.872;9.692;2023-05-08T02:59:13;6.70;;;6.00;;
1719;SDS011;857;52.872;9.692;2023-05-08T03:01:44;7.87;;;6.10;;
1719;SDS011;857;52.872;9.692;2023-05-08T03:04:17;6.40;;;5.47;;
1719;SDS011;857;52.872;9.692;2023-05-08T03:06:47;5.60;;;5.00;;
1719;SDS011;857;52.872;9.692;2023-05-08T03:09:17;9.10;;;6.80;;
1719;SDS011;857;52.872;9.692;2023-05-08T03:11:47;6.53;;;5.30;;
1719;SDS011;857;52.872;9.692;2023-05-08T03:14:18;8.07;;;6.37;;
1719;SDS011;857;52.872;9.692;2023-05-08T03:16:47;7.40;;;6.50;;
1719;SDS011;857;52.872;9.692;2023-05-08T03:19:18;7.27;;;6.43;;
1719;SDS011;857;52.872;9.692;2023-05-08T03:21:48;5.90;;;4.80;;
1719;SDS011;857;52.872;9.692;2023-05-08T03:24:21;7.27;;;6.53;;
1719;SDS011;857;52.872;9.692;2023-05-08T03:26:50;7.90;;;6.90;;
1719;SDS011;857;52.872;9.692;2023-05-08T03:29:17;7.70;;;6.70;;
1719;SDS011;857;52.872;9.692;2023-05-08T03:31:47;8.03;;;6.90;;
1719;SDS011;857;52.872;9.692;2023-05-08T03:34:16;9.10;;;8.00;;
1719;SDS011;857;52.872;9.692;2023-05-08T03:36:46;7.20;;;6.30;;
1719;SDS011;857;52.872;9.692;2023-05-08T03:39:15;9.17;;;7.57;;
1719;SDS011;857;52.872;9.692;2023-05-08T03:41:44;7.70;;;6.07;;
1719;SDS011;857;52.872;9.692;2023-05-08T03:44:14;8.33;;;6.00;;
1719;SDS011;857;52.872;9.692;2023-05-08T03:46:42;10.23;;;6.77;;
1719;SDS011;857;52.872;9.692;2023-05-08T03:49:11;8.63;;;6.77;;
1719;SDS011;857;52.872;9.692;2023-05-08T03:51:39;9.37;;;7.00;;
1719;SDS011;857;52.872;9.692;2023-05-08T03:54:07;7.00;;;6.30;;
1719;SDS011;857;52.872;9.692;2023-05-08T03:56:36;6.90;;;5.93;;
1719;SDS011;857;52.872;9.692;2023-05-08T03:59:08;4.67;;;4.27;;
1719;SDS011;857;52.872;9.692;2023-05-08T04:01:43;8.73;;;6.83;;
1719;SDS011;857;52.872;9.692;2023-05-08T04:04:15;8.30;;;6.80;;
1719;SDS011;857;52.872;9.692;2023-05-08T04:06:45;8.80;;;6.80;;
1719;SDS011;857;52.872;9.692;2023-05-08T04:09:22;7.97;;;6.70;;
1719;SDS011;857;52.872;9.692;2023-05-08T04:11:58;8.30;;;6.17;;
1719;SDS011;857;52.872;9.692;2023-05-08T04:14:30;6.87;;;6.07;;
1719;SDS011;857;52.872;9.692;2023-05-08T04:17:01;9.30;;;7.03;;
1719;SDS011;857;52.872;9.692;2023-05-08T04:19:32;8.70;;;6.87;;
1719;SDS011;857;52.872;9.692;2023-05-08T04:22:05;6.63;;;5.87;;
1719;SDS011;857;52.872;9.692;2023-05-08T04:24:36;8.90;;;6.97;;
1719;SDS011;857;52.872;9.692;2023-05-08T04:27:06;8.33;;;6.53;;
1719;SDS011;857;52.872;9.692;2023-05-08T04:29:35;6.30;;;5.30;;
1719;SDS011;857;52.872;9.692;2023-05-08T04:32:04;9.40;;;6.10;;
1719;SDS011;857;52.872;9.692;2023-05-08T04:34:33;8.23;;;7.10;;
1719;SDS011;857;52.872;9.692;2023-05-08T04:37:05;6.30;;;5.53;;
1719;SDS011;857;52.872;9.692;2023-05-08T04:39:33;7.63;;;6.60;;
1719;SDS011;857;52.872;9.692;2023-05-08T04:42:01;14.87;;;6.80;;
1719;SDS011;857;52.872;9.692;2023-05-08T04:44:33;7.60;;;6.43;;
1719;SDS011;857;52.872;9.692;2023-05-08T04:47:01;7.43;;;6.27;;
1719;SDS011;857;52.872;9.692;2023-05-08T04:49:30;7.00;;;6.17;;
1719;SDS011;857;52.872;9.692;2023-05-08T04:51:57;6.40;;;5.67;;
1719;SDS011;857;52.872;9.692;2023-05-08T04:54:25;6.70;;;6.03;;
1719;SDS011;857;52.872;9.692;2023-05-08T04:56:53;8.60;;;6.93;;
1719;SDS011;857;52.872;9.692;2023-05-08T04:59:21;8.50;;;6.70;;
1719;SDS011;857;52.872;9.692;2023-05-08T05:01:51;7.80;;;6.37;;
1719;SDS011;857;52.872;9.692;2023-05-08T05:04:18;5.57;;;4.63;;
1719;SDS011;857;52.872;9.692;2023-05-08T05:06:47;8.70;;;6.63;;
1719;SDS011;857;52.872;9.692;2023-05-08T05:09:14;8.43;;;6.77;;
1719;SDS011;857;52.872;9.692;2023-05-08T05:11:42;6.10;;;5.43;;
1719;SDS011;857;52.872;9.692;2023-05-08T05:14:10;6.23;;;5.63;;
1719;SDS011;857;52.872;9.692;2023-05-08T05:16:37;7.50;;;6.17;;
1719;SDS011;857;52.872;9.692;2023-05-08T05:19:20;6.60;;;5.90;;
1719;SDS011;857;52.872;9.692;2023-05-08T05:21:47;5.60;;;4.10;;
1719;SDS011;857;52.872;9.692;2023-05-08T05:24:15;5.40;;;4.60;;
1719;SDS011;857;52.872;9.692;2023-05-08T05:26:43;7.20;;;5.50;;
1719;SDS011;857;52.872;9.692;2023-05-08T05:29:11;7.10;;;5.87;;
1719;SDS011;857;52.872;9.692;2023-05-08T05:31:38;8.93;;;7.13;;
1719;SDS011;857;52.872;9.692;2023-05-08T05:34:07;6.40;;;5.53;;
1719;SDS011;857;52.872;9.692;2023-05-08T05:36:36;7.97;;;6.97;;
1719;SDS011;857;52.872;9.692;2023-05-08T05:39:04;7.50;;;6.80;;
1719;SDS011;857;52.872;9.692;2023-05-08T05:41:33;8.40;;;6.40;;
1719;SDS011;857;52.872;9.692;2023-05-08T05:44:01;6.80;;;5.10;;
1719;SDS011;857;52.872;9.692;2023-05-08T05:46:29;6.30;;;5.70;;
1719;SDS011;857;52.872;9.692;2023-05-08T05:48:59;6.53;;;4.73;;
1719;SDS011;857;52.872;9.692;2023-05-08T05:51:28;7.17;;;6.47;;
1719;SDS011;857;52.872;9.692;2023-05-08T05:53:57;6.97;;;6.27;;
1719;SDS011;857;52.872;9.692;2023-05-08T05:56:25;7.67;;;6.70;;
1719;SDS011;857;52.872;9.692;2023-05-08T05:58:53;6.80;;;6.10;;
1719;SDS011;857;52.872;9.692;2023-05-08T06:01:21;8.03;;;6.20;;
1719;SDS011;857;52.872;9.692;2023-05-08T06:03:50;9.67;;;6.90;;
1719;SDS011;857;52.872;9.692;2023-05-08T06:06:17;5.77;;;5.07;;
1719;SDS011;857;52.872;9.692;2023-05-08T06:08:46;6.10;;;5.20;;
1719;SDS011;857;52.872;9.692;2023-05-08T06:11:15;6.40;;;5.77;;
1719;SDS011;857;52.872;9.692;2023-05-08T06:13:43;8.10;;;6.70;;
1719;SDS011;857;52.872;9.692;2023-05-08T06:16:11;6.30;;;5.40;;
1719;SDS011;857;52.872;9.692;2023-05-08T06:18:39;5.90;;;5.30;;
1719;SDS011;857;52.872;9.692;2023-05-08T06:21:08;6.20;;;5.50;;
1719;SDS011;857;52.872;9.692;2023-05-08T06:23:36;5.57;;;4.97;;
1719;SDS011;857;52.872;9.692;2023-05-08T06:26:03;6.77;;;5.80;;
1719;SDS011;857;52.872;9.692;2023-05-08T06:28:32;6.20;;;5.60;;
1719;SDS011;857;52.872;9.692;2023-05-08T06:31:00;9.00;;;6.33;;
1719;SDS011;857;52.872;9.692;2023-05-08T06:33:28;5.50;;;5.00;;
1719;SDS011;857;52.872;9.692;2023-05-08T06:35:55;9.00;;;7.53;;
1719;SDS011;857;52.872;9.692;2023-05-08T06:38:23;8.07;;;6.03;;
1719;SDS011;857;52.872;9.692;2023-05-08T06:40:51;5.43;;;4.60;;
1719;SDS011;857;52.872;9.692;2023-05-08T06:43:19;6.10;;;5.50;;
1719;SDS011;857;52.872;9.692;2023-05-08T06:45:48;7.93;;;7.13;;
1719;SDS011;857;52.872;9.692;2023-05-08T06:48:17;7.73;;;6.70;;
1719;SDS011;857;52.872;9.692;2023-05-08T06:50:45;5.80;;;5.20;;
1719;SDS011;857;52.872;9.692;2023-05-08T06:53:12;6.30;;;5.20;;
1719;SDS011;857;52.872;9.692;2023-05-08T06:55:41;5.97;;;5.40;;
1719;SDS011;857;52.872;9.692;2023-05-08T06:58:09;6.60;;;5.93;;
1719;SDS011;857;52.872;9.692;2023-05-08T07:00:36;5.03;;;4.60;;
1719;SDS011;857;52.872;9.692;2023-05-08T07:03:05;6.10;;;5.50;;
1719;SDS011;857;52.872;9.692;2023-05-08T07:05:33;7.53;;;6.73;;
1719;SDS011;857;52.872;9.692;2023-05-08T07:08:01;7.07;;;5.60;;
1719;SDS011;857;52.872;9.692;2023-05-08T07:10:28;5.07;;;4.53;;
1719;SDS011;857;52.872;9.692;2023-05-08T07:12:56;6.33;;;5.50;;
1719;SDS011;857;52.872;9.692;2023-05-08T07:15:24;7.10;;;6.00;;
1719;SDS011;857;52.872;9.692;2023-05-08T07:17:52;6.87;;;5.80;;
1719;SDS011;857;52.872;9.692;2023-05-08T07:20:21;6.93;;;6.07;;
1719;SDS011;857;52.872;9.692;2023-05-08T07:22:48;6.03;;;5.43;;
1719;SDS011;857;52.872;9.692;2023-05-08T07:25:16;7.67;;;6.10;;
1719;SDS011;857;52.872;9.692;2023-05-08T07:27:44;6.10;;;5.50;;
1719;SDS011;857;52.872;9.692;2023-05-08T07:30:12;5.40;;;4.90;;
1719;SDS011;857;52.872;9.692;2023-05-08T07:32:39;5.63;;;4.70;;
1719;SDS011;857;52.872;9.692;2023-05-08T07:35:07;7.20;;;6.20;;
1719;SDS011;857;52.872;9.692;2023-05-08T07:37:38;9.10;;;7.17;;
1719;SDS011;857;52.872;9.692;2023-05-08T07:40:06;6.60;;;5.53;;
1719;SDS011;857;52.872;9.692;2023-05-08T07:42:37;6.23;;;5.63;;
1719;SDS011;857;52.872;9.692;2023-05-08T07:45:06;7.50;;;6.07;;
1719;SDS011;857;52.872;9.692;2023-05-08T07:47:34;8.40;;;6.60;;
1719;SDS011;857;52.872;9.692;2023-05-08T07:50:01;6.20;;;5.60;;
1719;SDS011;857;52.872;9.692;2023-05-08T07:52:29;6.67;;;5.93;;
1719;SDS011;857;52.872;9.692;2023-05-08T07:54:58;7.60;;;6.50;;
1719;SDS011;857;52.872;9.692;2023-05-08T07:57:26;7.73;;;6.27;;
1719;SDS011;857;52.872;9.692;2023-05-08T07:59:54;5.53;;;5.03;;
1719;SDS011;857;52.872;9.692;2023-05-08T08:02:21;5.37;;;4.87;;
1719;SDS011;857;52.872;9.692;2023-05-08T08:04:49;6.03;;;5.43;;
1719;SDS011;857;52.872;9.692;2023-05-08T08:07:16;4.80;;;4.40;;
1719;SDS011;857;52.872;9.692;2023-05-08T08:09:45;7.40;;;6.67;;
1719;SDS011;857;52.872;9.692;2023-05-08T08:12:14;6.70;;;5.97;;
1719;SDS011;857;52.872;9.692;2023-05-08T08:14:41;7.77;;;7.00;;
1719;SDS011;857;52.872;9.692;2023-05-08T08:17:09;6.80;;;6.07;;
1719;SDS011;857;52.872;9.692;2023-05-08T08:19:36;5.40;;;4.90;;
1719;SDS011;857;52.872;9.692;2023-05-08T08:22:04;5.90;;;5.40;;
1719;SDS011;857;52.872;9.692;2023-05-08T08:24:32;7.43;;;6.67;;
1719;SDS011;857;52.872;9.692;2023-05-08T08:27:11;6.10;;;5.50;;
1719;SDS011;857;52.872;9.692;2023-05-08T08:29:40;4.63;;;4.23;;
1719;SDS011;857;52.872;9.692;2023-05-08T08:32:08;5.37;;;4.87;;
1719;SDS011;857;52.872;9.692;2023-05-08T08:34:36;7.33;;;5.97;;
1719;SDS011;857;52.872;9.692;2023-05-08T08:37:03;7.17;;;6.03;;
1719;SDS011;857;52.872;9.692;2023-05-08T08:39:31;7.23;;;6.53;;
1719;SDS011;857;52.872;9.692;2023-05-08T08:41:59;8.13;;;6.50;;
1719;SDS011;857;52.872;9.692;2023-05-08T08:44:27;7.33;;;6.63;;
1719;SDS011;857;52.872;9.692;2023-05-08T08:46:56;4.53;;;4.10;;
1719;SDS011;857;52.872;9.692;2023-05-08T08:49:27;6.13;;;5.47;;
1719;SDS011;857;52.872;9.692;2023-05-08T08:51:57;6.57;;;5.20;;
1719;SDS011;857;52.872;9.692;2023-05-08T08:54:27;7.80;;;7.00;;
1719;SDS011;857;52.872;9.692;2023-05-08T08:56:55;6.17;;;5.20;;
1719;SDS011;857;52.872;9.692;2023-05-08T08:59:23;5.77;;;5.27;;
1719;SDS011;857;52.872;9.692;2023-05-08T09:01:52;7.30;;;6.37;;
1719;SDS011;857;52.872;9.692;2023-05-08T09:04:22;4.30;;;3.90;;
1719;SDS011;857;52.872;9.692;2023-05-08T09:06:52;9.20;;;6.67;;
1719;SDS011;857;52.872;9.692;2023-05-08T09:09:20;4.80;;;4.37;;
1719;SDS011;857;52.872;9.692;2023-05-08T09:11:48;7.80;;;6.30;;
1719;SDS011;857;52.872;9.692;2023-05-08T09:14:15;5.17;;;4.57;;
1719;SDS011;857;52.872;9.692;2023-05-08T09:16:43;7.50;;;6.70;;
1719;SDS011;857;52.872;9.692;2023-05-08T09:19:12;7.57;;;6.87;;
1719;SDS011;857;52.872;9.692;2023-05-08T09:21:41;9.90;;;7.00;;
1719;SDS011;857;52.872;9.692;2023-05-08T09:24:09;5.73;;;4.90;;
1719;SDS011;857;52.872;9.692;2023-05-08T09:26:38;8.77;;;7.40;;
1719;SDS011;857;52.872;9.692;2023-05-08T09:29:07;5.20;;;4.60;;
1719;SDS011;857;52.872;9.692;2023-05-08T09:31:37;6.23;;;5.60;;
1719;SDS011;857;52.872;9.692;2023-05-08T09:34:05;7.23;;;5.07;;
1719;SDS011;857;52.872;9.692;2023-05-08T09:36:33;6.27;;;5.67;;
1719;SDS011;857;52.872;9.692;2023-05-08T09:39:02;5.70;;;5.13;;
1719;SDS011;857;52.872;9.692;2023-05-08T09:41:30;7.03;;;5.90;;
1719;SDS011;857;52.872;9.692;2023-05-08T09:44:01;6.80;;;6.10;;
1719;SDS011;857;52.872;9.692;2023-05-08T09:46:29;8.67;;;7.10;;
1719;SDS011;857;52.872;9.692;2023-05-08T09:48:59;4.60;;;4.20;;
1719;SDS011;857;52.872;9.692;2023-05-08T09:51:30;7.30;;;6.50;;
1719;SDS011;857;52.872;9.692;2023-05-08T09:54:20;7.80;;;6.90;;
1719;SDS011;857;52.872;9.692;2023-05-08T09:56:47;8.40;;;7.50;;
1719;SDS011;857;52.872;9.692;2023-05-08T09:59:22;7.70;;;6.83;;
1719;SDS011;857;52.872;9.692;2023-05-08T10:01:50;5.07;;;4.57;;
1719;SDS011;857;52.872;9.692;2023-05-08T10:04:29;5.07;;;4.57;;
1719;SDS011;857;52.872;9.692;2023-05-08T10:06:57;6.50;;;5.40;;
1719;SDS011;857;52.872;9.692;2023-05-08T10:09:27;5.40;;;4.70;;
1719;SDS011;857;52.872;9.692;2023-05-08T10:11:54;7.00;;;5.70;;
1719;SDS011;857;52.872;9.692;2023-05-08T10:14:22;6.30;;;5.70;;
1719;SDS011;857;52.872;9.692;2023-05-08T10:16:50;6.10;;;5.20;;
1719;SDS011;857;52.872;9.692;2023-05-08T10:19:19;7.70;;;6.07;;
1719;SDS011;857;52.872;9.692;2023-05-08T10:21:47;6.10;;;5.20;;
1719;SDS011;857;52.872;9.692;2023-05-08T10:24:16;7.60;;;6.90;;
1719;SDS011;857;52.872;9.692;2023-05-08T10:26:50;5.93;;;5.40;;
1719;SDS011;857;52.872;9.692;2023-05-08T10:29:20;6.93;;;6.20;;
1719;SDS011;857;52.872;9.692;2023-05-08T10:31:52;5.10;;;4.60;;
1719;SDS011;857;52.872;9.692;2023-05-08T10:34:21;4.70;;;4.20;;
1719;SDS011;857;52.872;9.692;2023-05-08T10:36:50;5.90;;;5.30;;
1719;SDS011;857;52.872;9.692;2023-05-08T10:39:18;7.10;;;6.40;;
1719;SDS011;857;52.872;9.692;2023-05-08T10:41:54;4.10;;;3.70;;
1719;SDS011;857;52.872;9.692;2023-05-08T10:44:22;6.00;;;5.50;;
1719;SDS011;857;52.872;9.692;2023-05-08T10:46:52;7.10;;;5.67;;
1719;SDS011;857;52.872;9.692;2023-05-08T10:49:24;5.00;;;4.53;;
1719;SDS011;857;52.872;9.692;2023-05-08T10:51:59;4.77;;;4.30;;
1719;SDS011;857;52.872;9.692;2023-05-08T10:54:31;6.23;;;5.63;;
1719;SDS011;857;52.872;9.692;2023-05-08T10:57:09;7.00;;;6.30;;
1719;SDS011;857;52.872;9.692;2023-05-08T10:59:37;5.07;;;4.40;;
1719;SDS011;857;52.872;9.692;2023-05-08T11:02:05;4.40;;;4.00;;
1719;SDS011;857;52.872;9.692;2023-05-08T11:04:33;5.90;;;5.27;;
1719;SDS011;857;52.872;9.692;2023-05-08T11:07:00;3.87;;;3.57;;
1719;SDS011;857;52.872;9.692;2023-05-08T11:09:30;4.37;;;3.97;;
1719;SDS011;857;52.872;9.692;2023-05-08T11:12:17;5.37;;;4.50;;
1719;SDS011;857;52.872;9.692;2023-05-08T11:14:52;5.67;;;5.07;;
1719;SDS011;857;52.872;9.692;2023-05-08T11:17:22;4.23;;;3.83;;
1719;SDS011;857;52.872;9.692;2023-05-08T11:19:54;4.50;;;4.10;;
1719;SDS011;857;52.872;9.692;2023-05-08T11:22:23;4.43;;;4.03;;
1719;SDS011;857;52.872;9.692;2023-05-08T11:24:55;4.20;;;3.80;;
1719;SDS011;857;52.872;9.692;2023-05-08T11:27:37;5.33;;;4.83;;
1719;SDS011;857;52.872;9.692;2023-05-08T11:30:23;5.50;;;4.50;;
1719;SDS011;857;52.872;9.692;2023-05-08T11:33:11;4.83;;;4.30;;
1719;SDS011;857;52.872;9.692;2023-05-08T11:35:40;4.57;;;4.17;;
1719;SDS011;857;52.872;9.692;2023-05-08T11:38:15;4.20;;;3.80;;
1719;SDS011;857;52.872;9.692;2023-05-08T11:40:46;4.77;;;3.83;;
1719;SDS011;857;52.872;9.692;2023-05-08T11:43:25;4.00;;;3.60;;
1719;SDS011;857;52.872;9.692;2023-05-08T11:45:53;4.93;;;4.23;;
1719;SDS011;857;52.872;9.692;2023-05-08T11:48:21;4.00;;;3.60;;
1719;SDS011;857;52.872;9.692;2023-05-08T11:50:48;5.77;;;4.90;;
1719;SDS011;857;52.872;9.692;2023-05-08T11:53:17;5.30;;;3.97;;
1719;SDS011;857;52.872;9.692;2023-05-08T11:55:46;5.10;;;4.40;;
1719;SDS011;857;52.872;9.692;2023-05-08T11:58:14;3.60;;;3.30;;
1719;SDS011;857;52.872;9.692;2023-05-08T12:00:44;6.07;;;4.20;;
1719;SDS011;857;52.872;9.692;2023-05-08T12:03:12;3.90;;;3.60;;
1719;SDS011;857;52.872;9.692;2023-05-08T12:05:40;4.47;;;3.87;;
1719;SDS011;857;52.872;9.692;2023-05-08T12:08:12;4.00;;;3.60;;
1719;SDS011;857;52.872;9.692;2023-05-08T12:10:48;4.90;;;4.13;;
1719;SDS011;857;52.872;9.692;2023-05-08T12:13:16;3.97;;;3.63;;
1719;SDS011;857;52.872;9.692;2023-05-08T12:15:46;3.93;;;3.63;;
1719;SDS011;857;52.872;9.692;2023-05-08T12:18:14;4.77;;;4.37;;
1719;SDS011;857;52.872;9.692;2023-05-08T12:20:42;4.93;;;4.37;;
1719;SDS011;857;52.872;9.692;2023-05-08T12:23:10;5.10;;;4.70;;
1719;SDS011;857;52.872;9.692;2023-05-08T12:25:39;7.17;;;4.37;;
1719;SDS011;857;52.872;9.692;2023-05-08T12:28:06;3.87;;;3.43;;
1719;SDS011;857;52.872;9.692;2023-05-08T12:30:35;4.30;;;3.70;;
1719;SDS011;857;52.872;9.692;2023-05-08T12:33:04;4.17;;;3.77;;
1719;SDS011;857;52.872;9.692;2023-05-08T12:35:32;4.30;;;3.90;;
1719;SDS011;857;52.872;9.692;2023-05-08T12:38:00;4.60;;;4.17;;
1719;SDS011;857;52.872;9.692;2023-05-08T12:40:29;4.03;;;3.67;;
1719;SDS011;857;52.872;9.692;2023-05-08T12:42:58;3.90;;;3.60;;
1719;SDS011;857;52.872;9.692;2023-05-08T12:45:27;4.03;;;3.63;;
1719;SDS011;857;52.872;9.692;2023-05-08T12:47:57;3.83;;;3.43;;
1719;SDS011;857;52.872;9.692;2023-05-08T12:50:26;4.60;;;4.20;;
1719;SDS011;857;52.872;9.692;2023-05-08T12:53:00;4.60;;;4.20;;
1719;SDS011;857;52.872;9.692;2023-05-08T12:55:29;3.60;;;3.30;;
1719;SDS011;857;52.872;9.692;2023-05-08T12:57:57;5.00;;;3.70;;
1719;SDS011;857;52.872;9.692;2023-05-08T13:00:32;4.03;;;3.40;;
1719;SDS011;857;52.872;9.692;2023-05-08T13:03:01;4.53;;;3.53;;
1719;SDS011;857;52.872;9.692;2023-05-08T13:05:30;3.77;;;3.47;;
1719;SDS011;857;52.872;9.692;2023-05-08T13:07:58;4.00;;;3.70;;
1719;SDS011;857;52.872;9.692;2023-05-08T13:10:41;4.80;;;4.23;;
1719;SDS011;857;52.872;9.692;2023-05-08T13:13:09;3.83;;;3.53;;
1719;SDS011;857;52.872;9.692;2023-05-08T13:15:37;3.73;;;3.40;;
1719;SDS011;857;52.872;9.692;2023-05-08T13:18:05;3.43;;;3.13;;
1719;SDS011;857;52.872;9.692;2023-05-08T13:20:34;5.40;;;3.23;;
1719;SDS011;857;52.872;9.692;2023-05-08T13:23:02;4.10;;;3.80;;
1719;SDS011;857;52.872;9.692;2023-05-08T13:25:29;4.07;;;3.50;;
1719;SDS011;857;52.872;9.692;2023-05-08T13:27:57;3.70;;;3.40;;
1719;SDS011;857;52.872;9.692;2023-05-08T13:30:28;3.27;;;3.00;;
1719;SDS011;857;52.872;9.692;2023-05-08T13:32:56;3.33;;;3.03;;
1719;SDS011;857;52.872;9.692;2023-05-08T13:35:24;4.77;;;4.00;;
1719;SDS011;857;52.872;9.692;2023-05-08T13:37:54;4.87;;;3.40;;
1719;SDS011;857;52.872;9.692;2023-05-08T13:40:22;3.60;;;3.30;;
1719;SDS011;857;52.872;9.692;2023-05-08T13:42:50;3.63;;;3.33;;
1719;SDS011;857;52.872;9.692;2023-05-08T13:45:18;3.80;;;3.47;;
1719;SDS011;857;52.872;9.692;2023-05-08T13:47:46;3.57;;;3.27;;
1719;SDS011;857;52.872;9.692;2023-05-08T13:50:14;4.00;;;3.60;;
1719;SDS011;857;52.872;9.692;2023-05-08T13:52:42;4.00;;;3.40;;
1719;SDS011;857;52.872;9.692;2023-05-08T13:55:12;4.33;;;3.60;;
1719;SDS011;857;52.872;9.692;2023-05-08T13:57:40;3.47;;;3.17;;
1719;SDS011;857;52.872;9.692;2023-05-08T14:00:08;3.60;;;3.30;;
1719;SDS011;857;52.872;9.692;2023-05-08T14:02:35;2.73;;;2.53;;
1719;SDS011;857;52.872;9.692;2023-05-08T14:05:08;4.07;;;3.27;;
1719;SDS011;857;52.872;9.692;2023-05-08T14:07:36;3.90;;;3.00;;
1719;SDS011;857;52.872;9.692;2023-05-08T14:10:04;3.73;;;3.43;;
1719;SDS011;857;52.872;9.692;2023-05-08T14:12:33;3.43;;;3.13;;
1719;SDS011;857;52.872;9.692;2023-05-08T14:15:02;2.90;;;2.70;;
1719;SDS011;857;52.872;9.692;2023-05-08T14:17:30;4.40;;;2.90;;
1719;SDS011;857;52.872;9.692;2023-05-08T14:19:57;3.57;;;3.27;;
1719;SDS011;857;52.872;9.692;2023-05-08T14:22:25;4.73;;;3.20;;
1719;SDS011;857;52.872;9.692;2023-05-08T14:24:53;3.10;;;2.83;;
1719;SDS011;857;52.872;9.692;2023-05-08T14:27:21;3.20;;;2.83;;
1719;SDS011;857;52.872;9.692;2023-05-08T14:29:50;3.77;;;3.47;;
1719;SDS011;857;52.872;9.692;2023-05-08T14:32:18;3.30;;;3.00;;
1719;SDS011;857;52.872;9.692;2023-05-08T14:34:46;3.60;;;3.30;;
1719;SDS011;857;52.872;9.692;2023-05-08T14:37:14;4.17;;;3.77;;
1719;SDS011;857;52.872;9.692;2023-05-08T14:39:42;3.17;;;2.97;;
1719;SDS011;857;52.872;9.692;2023-05-08T14:42:10;3.00;;;2.70;;
1719;SDS011;857;52.872;9.692;2023-05-08T14:44:37;3.70;;;3.40;;
1719;SDS011;857;52.872;9.692;2023-05-08T14:47:07;3.07;;;2.77;;
1719;SDS011;857;52.872;9.692;2023-05-08T14:49:34;3.07;;;2.87;;
1719;SDS011;857;52.872;9.692;2023-05-08T14:52:02;3.07;;;2.77;;
1719;SDS011;857;52.872;9.692;2023-05-08T14:54:30;3.30;;;3.00;;
1719;SDS011;857;52.872;9.692;2023-05-08T14:56:58;3.13;;;2.83;;
1719;SDS011;857;52.872;9.692;2023-05-08T14:59:25;3.20;;;2.90;;
1719;SDS011;857;52.872;9.692;2023-05-08T15:01:53;3.30;;;3.00;;
1719;SDS011;857;52.872;9.692;2023-05-08T15:04:22;3.57;;;3.27;;
1719;SDS011;857;52.872;9.692;2023-05-08T15:06:50;3.33;;;3.03;;
1719;SDS011;857;52.872;9.692;2023-05-08T15:09:17;3.10;;;2.90;;
1719;SDS011;857;52.872;9.692;2023-05-08T15:11:45;3.17;;;2.87;;
1719;SDS011;857;52.872;9.692;2023-05-08T15:14:13;3.57;;;3.27;;
1719;SDS011;857;52.872;9.692;2023-05-08T15:16:40;3.40;;;2.80;;
1719;SDS011;857;52.872;9.692;2023-05-08T15:19:08;3.40;;;3.07;;
1719;SDS011;857;52.872;9.692;2023-05-08T15:21:37;4.07;;;3.67;;
1719;SDS011;857;52.872;9.692;2023-05-08T15:24:05;3.93;;;3.53;;
1719;SDS011;857;52.872;9.692;2023-05-08T15:26:33;3.10;;;2.80;;
1719;SDS011;857;52.872;9.692;2023-05-08T15:29:01;3.20;;;2.93;;
1719;SDS011;857;52.872;9.692;2023-05-08T15:31:28;3.20;;;2.90;;
1719;SDS011;857;52.872;9.692;2023-05-08T15:33:56;3.50;;;3.20;;
1719;SDS011;857;52.872;9.692;2023-05-08T15:36:24;6.03;;;4.20;;
1719;SDS011;857;52.872;9.692;2023-05-08T15:38:53;3.40;;;3.00;;
1719;SDS011;857;52.872;9.692;2023-05-08T15:41:21;3.27;;;3.07;;
1719;SDS011;857;52.872;9.692;2023-05-08T15:43:48;2.80;;;2.60;;
1719;SDS011;857;52.872;9.692;2023-05-08T15:46:19;4.37;;;3.33;;
1719;SDS011;857;52.872;9.692;2023-05-08T15:48:46;3.43;;;2.80;;